sensor_id;sensor_type;location;lat;lon;timestamp;pressure;altitude;pressure_sealevel;temperature;humidity
64292;BME280;50628;51.008;13.658;2022-10-22T00:02:53;99370.94;;;10.44;100.00
64292;BME280;50628;51.008;13.658;2022-10-22T00:07:55;99362.53;;;10.40;100.00
64292;BME280;50628;51.008;13.658;2022-10-22T00:12:56;99362.69;;;10.38;100.00
64292;BME280;50628;51.008;13.658;2022-10-22T00:17:59;99376.69;;;10.47;100.00
64292;BME280;50628;51.008;13.658;2022-10-22T00:23:01;99360.41;;;10.55;100.00
64292;BME280;50628;51.008;13.658;2022-10-22T00:28:03;99350.69;;;10.57;100.00
64292;BME280;50628;51.008;13.658;2022-10-22T00:33:06;99352.13;;;10.40;100.00
64292;BME280;50628;51.008;13.658;2022-10-22T00:38:08;99350.81;;;10.25;100.00
64292;BME280;50628;51.008;13.658;2022-10-22T00:43:10;99352.59;;;10.24;100.00
64292;BME280;50628;51.008;13.658;2022-10-22T00:48:15;99358.06;;;10.21;100.00
64292;BME280;50628;51.008;13.658;2022-10-22T00:53:21;99352.72;;;10.23;100.00
64292;BME280;50628;51.008;13.658;2022-10-22T00:58:27;99346.59;;;10.24;100.00
64292;BME280;50628;51.008;13.658;2022-10-22T01:03:31;99363.47;;;10.29;100.00
64292;BME280;50628;51.008;13.658;2022-10-22T01:08:38;99353.16;;;10.49;100.00
64292;BME280;50628;51.008;13.658;2022-10-22T01:13:48;99346.28;;;10.48;100.00
64292;BME280;50628;51.008;13.658;2022-10-22T01:19:00;99346.69;;;10.53;100.00
64292;BME280;50628;51.008;13.658;2022-10-22T01:24:33;99353.28;;;10.57;100.00
64292;BME280;50628;51.008;13.658;2022-10-22T01:29:39;99353.72;;;10.62;100.00
64292;BME280;50628;51.008;13.658;2022-10-22T01:34:46;99350.72;;;10.67;100.00
64292;BME280;50628;51.008;13.658;2022-10-22T01:39:50;99338.06;;;10.52;100.00
64292;BME280;50628;51.008;13.658;2022-10-22T01:44:54;99347.53;;;10.63;100.00
64292;BME280;50628;51.008;13.658;2022-10-22T01:50:11;99340.84;;;10.70;100.00
64292;BME280;50628;51.008;13.658;2022-10-22T01:55:20;99334.94;;;10.68;100.00
64292;BME280;50628;51.008;13.658;2022-10-22T02:00:26;99343.59;;;10.78;100.00
64292;BME280;50628;51.008;13.658;2022-10-22T02:05:32;99338.84;;;10.83;100.00
64292;BME280;50628;51.008;13.658;2022-10-22T02:10:40;99331.94;;;10.63;100.00
64292;BME280;50628;51.008;13.658;2022-10-22T02:15:45;99330.41;;;10.60;100.00
64292;BME280;50628;51.008;13.658;2022-10-22T02:20:50;99334.78;;;10.50;100.00
64292;BME280;50628;51.008;13.658;2022-10-22T02:25:58;99330.41;;;10.51;100.00
64292;BME280;50628;51.008;13.658;2022-10-22T02:31:09;99329.88;;;10.57;100.00
64292;BME280;50628;51.008;13.658;2022-10-22T02:36:15;99322.88;;;10.57;100.00
64292;BME280;50628;51.008;13.658;2022-10-22T02:41:17;99330.16;;;10.64;100.00
64292;BME280;50628;51.008;13.658;2022-10-22T02:46:21;99342.09;;;10.66;100.00
64292;BME280;50628;51.008;13.658;2022-10-22T02:51:23;99325.81;;;10.74;100.00
64292;BME280;50628;51.008;13.658;2022-10-22T02:56:25;99324.41;;;10.70;100.00
64292;BME280;50628;51.008;13.658;2022-10-22T03:01:28;99330.84;;;10.66;100.00
64292;BME280;50628;51.008;13.658;2022-10-22T03:06:29;99336.47;;;10.80;100.00
64292;BME280;50628;51.008;13.658;2022-10-22T03:11:31;99338.94;;;10.72;100.00
64292;BME280;50628;51.008;13.658;2022-10-22T03:16:34;99317.28;;;10.62;100.00
64292;BME280;50628;51.008;13.658;2022-10-22T03:21:38;99328.94;;;10.68;100.00
64292;BME280;50628;51.008;13.658;2022-10-22T03:26:42;99340.34;;;10.76;100.00
64292;BME280;50628;51.008;13.658;2022-10-22T03:31:47;99333.47;;;10.75;100.00
64292;BME280;50628;51.008;13.658;2022-10-22T03:36:50;99343.19;;;10.64;100.00
64292;BME280;50628;51.008;13.658;2022-10-22T03:41:52;99357.72;;;10.66;100.00
64292;BME280;50628;51.008;13.658;2022-10-22T03:46:56;99358.38;;;10.68;100.00
64292;BME280;50628;51.008;13.658;2022-10-22T03:52:04;99357.69;;;10.76;100.00
64292;BME280;50628;51.008;13.658;2022-10-22T03:57:06;99363.78;;;10.86;100.00
64292;BME280;50628;51.008;13.658;2022-10-22T04:02:10;99360.09;;;10.89;100.00
64292;BME280;50628;51.008;13.658;2022-10-22T04:07:12;99351.72;;;10.95;100.00
64292;BME280;50628;51.008;13.658;2022-10-22T04:12:14;99346.81;;;11.01;100.00
64292;BME280;50628;51.008;13.658;2022-10-22T04:17:17;99347.31;;;10.95;100.00
64292;BME280;50628;51.008;13.658;2022-10-22T04:22:18;99354.72;;;10.90;100.00
64292;BME280;50628;51.008;13.658;2022-10-22T04:27:20;99360.63;;;10.92;100.00
64292;BME280;50628;51.008;13.658;2022-10-22T04:32:23;99364.31;;;10.90;100.00
64292;BME280;50628;51.008;13.658;2022-10-22T04:37:25;99356.19;;;10.73;100.00
64292;BME280;50628;51.008;13.658;2022-10-22T04:42:27;99360.19;;;10.77;100.00
64292;BME280;50628;51.008;13.658;2022-10-22T04:47:30;99353.16;;;10.68;100.00
64292;BME280;50628;51.008;13.658;2022-10-22T04:52:31;99360.88;;;10.79;100.00
64292;BME280;50628;51.008;13.658;2022-10-22T04:57:33;99346.63;;;10.74;100.00
64292;BME280;50628;51.008;13.658;2022-10-22T05:02:37;99351.22;;;10.60;100.00
64292;BME280;50628;51.008;13.658;2022-10-22T05:07:39;99351.94;;;10.63;100.00
64292;BME280;50628;51.008;13.658;2022-10-22T05:12:41;99343.44;;;10.70;100.00
64292;BME280;50628;51.008;13.658;2022-10-22T05:17:44;99350.44;;;10.70;100.00
64292;BME280;50628;51.008;13.658;2022-10-22T05:22:46;99368.53;;;10.71;100.00
64292;BME280;50628;51.008;13.658;2022-10-22T05:27:48;99379.91;;;10.70;100.00
64292;BME280;50628;51.008;13.658;2022-10-22T05:32:51;99379.91;;;10.70;100.00
64292;BME280;50628;51.008;13.658;2022-10-22T05:37:53;99383.97;;;10.63;100.00
64292;BME280;50628;51.008;13.658;2022-10-22T05:42:54;99381.69;;;10.70;100.00
64292;BME280;50628;51.008;13.658;2022-10-22T05:47:57;99384.72;;;10.85;100.00
64292;BME280;50628;51.008;13.658;2022-10-22T05:52:59;99392.47;;;10.65;100.00
64292;BME280;50628;51.008;13.658;2022-10-22T05:58:01;99397.72;;;10.75;100.00
64292;BME280;50628;51.008;13.658;2022-10-22T06:03:04;99402.81;;;10.76;100.00
64292;BME280;50628;51.008;13.658;2022-10-22T06:08:08;99415.66;;;10.78;100.00
64292;BME280;50628;51.008;13.658;2022-10-22T06:13:10;99422.28;;;10.82;100.00
64292;BME280;50628;51.008;13.658;2022-10-22T06:18:13;99424.63;;;10.95;100.00
64292;BME280;50628;51.008;13.658;2022-10-22T06:23:15;99424.50;;;10.96;100.00
64292;BME280;50628;51.008;13.658;2022-10-22T06:28:17;99419.44;;;11.04;100.00
64292;BME280;50628;51.008;13.658;2022-10-22T06:33:20;99427.25;;;11.04;100.00
64292;BME280;50628;51.008;13.658;2022-10-22T06:38:21;99432.72;;;11.11;100.00
64292;BME280;50628;51.008;13.658;2022-10-22T06:43:23;99449.63;;;11.17;100.00
64292;BME280;50628;51.008;13.658;2022-10-22T06:48:26;99461.53;;;11.10;100.00
64292;BME280;50628;51.008;13.658;2022-10-22T06:53:28;99452.94;;;11.19;100.00
64292;BME280;50628;51.008;13.658;2022-10-22T06:58:29;99457.72;;;11.23;100.00
64292;BME280;50628;51.008;13.658;2022-10-22T07:03:32;99477.59;;;11.24;100.00
64292;BME280;50628;51.008;13.658;2022-10-22T07:08:35;99475.53;;;11.28;100.00
64292;BME280;50628;51.008;13.658;2022-10-22T07:13:37;99489.53;;;11.27;100.00
64292;BME280;50628;51.008;13.658;2022-10-22T07:18:40;99493.09;;;11.26;100.00
64292;BME280;50628;51.008;13.658;2022-10-22T07:23:43;99499.00;;;11.38;100.00
64292;BME280;50628;51.008;13.658;2022-10-22T07:28:45;99498.34;;;11.45;100.00
64292;BME280;50628;51.008;13.658;2022-10-22T07:33:48;99507.81;;;11.37;100.00
64292;BME280;50628;51.008;13.658;2022-10-22T07:38:53;99518.91;;;11.29;100.00
64292;BME280;50628;51.008;13.658;2022-10-22T07:43:55;99526.59;;;11.40;100.00
64292;BME280;50628;51.008;13.658;2022-10-22T07:48:59;99552.03;;;12.36;100.00
64292;BME280;50628;51.008;13.658;2022-10-22T07:54:00;99562.22;;;13.23;100.00
64292;BME280;50628;51.008;13.658;2022-10-22T07:59:02;99554.47;;;13.41;100.00
64292;BME280;50628;51.008;13.658;2022-10-22T08:04:05;99548.38;;;13.40;100.00
64292;BME280;50628;51.008;13.658;2022-10-22T08:09:09;99559.91;;;13.48;100.00
64292;BME280;50628;51.008;13.658;2022-10-22T08:14:10;99555.56;;;13.38;100.00
64292;BME280;50628;51.008;13.658;2022-10-22T08:19:13;99563.19;;;13.50;100.00
64292;BME280;50628;51.008;13.658;2022-10-22T08:24:18;99569.09;;;13.52;100.00
64292;BME280;50628;51.008;13.658;2022-10-22T08:29:19;99558.34;;;13.55;100.00
64292;BME280;50628;51.008;13.658;2022-10-22T08:34:23;99552.59;;;13.51;100.00
64292;BME280;50628;51.008;13.658;2022-10-22T08:39:25;99542.28;;;13.50;100.00
64292;BME280;50628;51.008;13.658;2022-10-22T08:44:38;99543.94;;;13.51;100.00
64292;BME280;50628;51.008;13.658;2022-10-22T08:49:48;99561.25;;;13.52;100.00
64292;BME280;50628;51.008;13.658;2022-10-22T08:54:52;99576.66;;;13.55;100.00
64292;BME280;50628;51.008;13.658;2022-10-22T09:00:00;99575.41;;;13.59;100.00
64292;BME280;50628;51.008;13.658;2022-10-22T09:05:17;99571.81;;;13.60;100.00
64292;BME280;50628;51.008;13.658;2022-10-22T09:10:26;99564.50;;;13.63;100.00
64292;BME280;50628;51.008;13.658;2022-10-22T09:15:29;99570.06;;;13.78;100.00
64292;BME280;50628;51.008;13.658;2022-10-22T09:20:38;99585.44;;;13.81;100.00
64292;BME280;50628;51.008;13.658;2022-10-22T09:25:46;99579.91;;;13.84;100.00
64292;BME280;50628;51.008;13.658;2022-10-22T09:30:50;99568.31;;;14.05;100.00
64292;BME280;50628;51.008;13.658;2022-10-22T09:35:56;99570.94;;;14.23;100.00
64292;BME280;50628;51.008;13.658;2022-10-22T09:41:00;99572.28;;;14.27;100.00
64292;BME280;50628;51.008;13.658;2022-10-22T09:46:05;99573.22;;;14.44;100.00
64292;BME280;50628;51.008;13.658;2022-10-22T09:51:14;99570.06;;;14.40;100.00
64292;BME280;50628;51.008;13.658;2022-10-22T09:56:24;99572.47;;;14.52;100.00
64292;BME280;50628;51.008;13.658;2022-10-22T10:01:27;99571.06;;;14.57;100.00
64292;BME280;50628;51.008;13.658;2022-10-22T10:06:33;99574.78;;;14.81;100.00
64292;BME280;50628;51.008;13.658;2022-10-22T10:11:41;99571.50;;;15.05;100.00
64292;BME280;50628;51.008;13.658;2022-10-22T10:16:54;99565.63;;;15.19;100.00
64292;BME280;50628;51.008;13.658;2022-10-22T10:22:06;99570.31;;;15.42;100.00
64292;BME280;50628;51.008;13.658;2022-10-22T10:27:17;99570.47;;;15.83;100.00
64292;BME280;50628;51.008;13.658;2022-10-22T10:32:33;99556.84;;;15.87;100.00
64292;BME280;50628;51.008;13.658;2022-10-22T10:37:44;99533.88;;;15.97;100.00
64292;BME280;50628;51.008;13.658;2022-10-22T10:42:51;99547.34;;;16.11;100.00
64292;BME280;50628;51.008;13.658;2022-10-22T10:48:12;99534.56;;;16.08;100.00
64292;BME280;50628;51.008;13.658;2022-10-22T10:53:26;99549.16;;;16.27;100.00
64292;BME280;50628;51.008;13.658;2022-10-22T10:58:39;99533.53;;;16.50;100.00
64292;BME280;50628;51.008;13.658;2022-10-22T11:04:01;99535.44;;;16.72;100.00
64292;BME280;50628;51.008;13.658;2022-10-22T11:09:20;99556.31;;;16.82;100.00
64292;BME280;50628;51.008;13.658;2022-10-22T11:14:28;99569.63;;;16.64;100.00
64292;BME280;50628;51.008;13.658;2022-10-22T11:19:34;99562.13;;;16.12;100.00
64292;BME280;50628;51.008;13.658;2022-10-22T11:24:46;99562.94;;;15.88;100.00
64292;BME280;50628;51.008;13.658;2022-10-22T11:29:57;99568.16;;;15.79;100.00
64292;BME280;50628;51.008;13.658;2022-10-22T11:35:04;99561.28;;;15.95;100.00
64292;BME280;50628;51.008;13.658;2022-10-22T11:40:14;99553.41;;;16.11;100.00
64292;BME280;50628;51.008;13.658;2022-10-22T11:45:27;99554.22;;;16.36;100.00
64292;BME280;50628;51.008;13.658;2022-10-22T11:50:43;99552.25;;;16.47;100.00
64292;BME280;50628;51.008;13.658;2022-10-22T11:55:49;99555.19;;;16.52;100.00
64292;BME280;50628;51.008;13.658;2022-10-22T12:00:52;99547.81;;;16.63;100.00
64292;BME280;50628;51.008;13.658;2022-10-22T12:06:16;99549.25;;;16.82;100.00
64292;BME280;50628;51.008;13.658;2022-10-22T12:11:22;99543.97;;;16.91;100.00
64292;BME280;50628;51.008;13.658;2022-10-22T12:16:27;99544.34;;;16.79;100.00
64292;BME280;50628;51.008;13.658;2022-10-22T12:21:32;99534.94;;;16.85;100.00
64292;BME280;50628;51.008;13.658;2022-10-22T12:26:36;99533.47;;;17.30;100.00
64292;BME280;50628;51.008;13.658;2022-10-22T12:31:40;99539.78;;;17.75;100.00
64292;BME280;50628;51.008;13.658;2022-10-22T12:36:45;99540.22;;;17.79;100.00
64292;BME280;50628;51.008;13.658;2022-10-22T12:41:48;99535.09;;;17.62;100.00
64292;BME280;50628;51.008;13.658;2022-10-22T12:46:53;99533.84;;;18.19;100.00
64292;BME280;50628;51.008;13.658;2022-10-22T12:51:54;99531.63;;;18.84;100.00
64292;BME280;50628;51.008;13.658;2022-10-22T12:57:02;99531.47;;;19.21;100.00
64292;BME280;50628;51.008;13.658;2022-10-22T13:02:14;99528.22;;;18.75;100.00
64292;BME280;50628;51.008;13.658;2022-10-22T13:07:18;99532.50;;;19.57;100.00
64292;BME280;50628;51.008;13.658;2022-10-22T13:12:23;99528.25;;;19.99;100.00
64292;BME280;50628;51.008;13.658;2022-10-22T13:17:38;99536.22;;;20.05;100.00
64292;BME280;50628;51.008;13.658;2022-10-22T13:22:50;99533.56;;;20.27;100.00
64292;BME280;50628;51.008;13.658;2022-10-22T13:27:56;99549.09;;;20.37;100.00
64292;BME280;50628;51.008;13.658;2022-10-22T13:32:59;99546.13;;;20.46;100.00
64292;BME280;50628;51.008;13.658;2022-10-22T13:38:05;99551.28;;;20.33;100.00
64292;BME280;50628;51.008;13.658;2022-10-22T13:43:16;99553.50;;;20.86;100.00
64292;BME280;50628;51.008;13.658;2022-10-22T13:48:20;99552.84;;;21.60;100.00
64292;BME280;50628;51.008;13.658;2022-10-22T13:53:25;99562.53;;;20.98;100.00
64292;BME280;50628;51.008;13.658;2022-10-22T13:58:29;99557.50;;;21.10;100.00
64292;BME280;50628;51.008;13.658;2022-10-22T14:03:33;99562.59;;;21.53;100.00
64292;BME280;50628;51.008;13.658;2022-10-22T14:08:36;99551.69;;;22.22;100.00
64292;BME280;50628;51.008;13.658;2022-10-22T14:13:39;99566.47;;;20.24;100.00
64292;BME280;50628;51.008;13.658;2022-10-22T14:18:41;99567.72;;;21.68;100.00
64292;BME280;50628;51.008;13.658;2022-10-22T14:23:45;99565.13;;;22.14;100.00
64292;BME280;50628;51.008;13.658;2022-10-22T14:28:49;99568.03;;;22.33;100.00
64292;BME280;50628;51.008;13.658;2022-10-22T14:33:50;99556.97;;;22.69;100.00
64292;BME280;50628;51.008;13.658;2022-10-22T14:38:52;99563.47;;;23.90;100.00
64292;BME280;50628;51.008;13.658;2022-10-22T14:43:55;99572.56;;;24.57;100.00
64292;BME280;50628;51.008;13.658;2022-10-22T14:48:59;99578.81;;;24.70;100.00
64292;BME280;50628;51.008;13.658;2022-10-22T14:54:00;99582.44;;;24.94;100.00
64292;BME280;50628;51.008;13.658;2022-10-22T14:59:03;99586.94;;;23.93;100.00
64292;BME280;50628;51.008;13.658;2022-10-22T15:04:05;99593.97;;;23.81;100.00
64292;BME280;50628;51.008;13.658;2022-10-22T15:09:07;99591.03;;;24.52;100.00
64292;BME280;50628;51.008;13.658;2022-10-22T15:14:10;99586.97;;;24.50;100.00
64292;BME280;50628;51.008;13.658;2022-10-22T15:19:11;99593.38;;;24.10;100.00
64292;BME280;50628;51.008;13.658;2022-10-22T15:24:13;99600.03;;;22.24;100.00
64292;BME280;50628;51.008;13.658;2022-10-22T15:29:16;99597.81;;;20.49;100.00
64292;BME280;50628;51.008;13.658;2022-10-22T15:34:19;99616.28;;;19.18;100.00
64292;BME280;50628;51.008;13.658;2022-10-22T15:39:22;99620.59;;;18.44;100.00
64292;BME280;50628;51.008;13.658;2022-10-22T15:44:27;99625.31;;;18.10;100.00
64292;BME280;50628;51.008;13.658;2022-10-22T15:49:29;99640.16;;;17.72;100.00
64292;BME280;50628;51.008;13.658;2022-10-22T15:54:32;99639.78;;;17.44;100.00
64292;BME280;50628;51.008;13.658;2022-10-22T15:59:35;99655.84;;;17.01;100.00
64292;BME280;50628;51.008;13.658;2022-10-22T16:04:37;99658.97;;;16.64;100.00
64292;BME280;50628;51.008;13.658;2022-10-22T16:09:39;99666.50;;;16.26;100.00
64292;BME280;50628;51.008;13.658;2022-10-22T16:14:42;99674.34;;;16.10;100.00
64292;BME280;50628;51.008;13.658;2022-10-22T16:19:43;99687.59;;;15.92;100.00
64292;BME280;50628;51.008;13.658;2022-10-22T16:24:45;99693.13;;;15.72;100.00
64292;BME280;50628;51.008;13.658;2022-10-22T16:29:48;99710.19;;;15.50;100.00
64292;BME280;50628;51.008;13.658;2022-10-22T16:34:50;99730.03;;;15.27;100.00
64292;BME280;50628;51.008;13.658;2022-10-22T16:39:52;99732.06;;;15.07;100.00
64292;BME280;50628;51.008;13.658;2022-10-22T16:44:55;99741.03;;;14.86;100.00
64292;BME280;50628;51.008;13.658;2022-10-22T16:49:57;99749.22;;;14.65;100.00
64292;BME280;50628;51.008;13.658;2022-10-22T16:55:00;99755.06;;;14.59;100.00
64292;BME280;50628;51.008;13.658;2022-10-22T17:00:04;99764.59;;;14.33;100.00
64292;BME280;50628;51.008;13.658;2022-10-22T17:05:07;99764.25;;;14.18;100.00
64292;BME280;50628;51.008;13.658;2022-10-22T17:10:08;99784.28;;;14.09;100.00
64292;BME280;50628;51.008;13.658;2022-10-22T17:15:12;99785.56;;;13.95;100.00
64292;BME280;50628;51.008;13.658;2022-10-22T17:20:13;99788.19;;;13.95;100.00
64292;BME280;50628;51.008;13.658;2022-10-22T17:25:20;99794.31;;;13.86;100.00
64292;BME280;50628;51.008;13.658;2022-10-22T17:30:24;99803.66;;;13.89;100.00
64292;BME280;50628;51.008;13.658;2022-10-22T17:35:27;99806.81;;;13.82;100.00
64292;BME280;50628;51.008;13.658;2022-10-22T17:40:29;99812.38;;;13.70;100.00
64292;BME280;50628;51.008;13.658;2022-10-22T17:45:32;99822.53;;;13.73;100.00
64292;BME280;50628;51.008;13.658;2022-10-22T17:50:39;99822.97;;;13.68;100.00
64292;BME280;50628;51.008;13.658;2022-10-22T17:55:40;99822.84;;;13.60;100.00
64292;BME280;50628;51.008;13.658;2022-10-22T18:00:44;99824.75;;;13.68;100.00
64292;BME280;50628;51.008;13.658;2022-10-22T18:05:45;99834.13;;;13.60;100.00
64292;BME280;50628;51.008;13.658;2022-10-22T18:10:47;99836.38;;;13.46;100.00
64292;BME280;50628;51.008;13.658;2022-10-22T18:15:54;99849.19;;;13.29;100.00
64292;BME280;50628;51.008;13.658;2022-10-22T18:20:56;99858.13;;;13.27;100.00
64292;BME280;50628;51.008;13.658;2022-10-22T18:26:03;99862.22;;;13.19;100.00
64292;BME280;50628;51.008;13.658;2022-10-22T18:31:07;99858.38;;;13.14;100.00
64292;BME280;50628;51.008;13.658;2022-10-22T18:36:11;99849.84;;;13.02;100.00
64292;BME280;50628;51.008;13.658;2022-10-22T18:41:13;99849.28;;;12.98;100.00
64292;BME280;50628;51.008;13.658;2022-10-22T18:46:16;99845.03;;;13.07;100.00
64292;BME280;50628;51.008;13.658;2022-10-22T18:51:18;99847.63;;;13.17;100.00
64292;BME280;50628;51.008;13.658;2022-10-22T18:56:20;99837.88;;;13.19;100.00
64292;BME280;50628;51.008;13.658;2022-10-22T19:01:25;99834.44;;;13.18;100.00
64292;BME280;50628;51.008;13.658;2022-10-22T19:06:29;99838.69;;;13.19;100.00
64292;BME280;50628;51.008;13.658;2022-10-22T19:11:31;99830.47;;;13.34;100.00
64292;BME280;50628;51.008;13.658;2022-10-22T19:16:34;99846.53;;;13.19;100.00
64292;BME280;50628;51.008;13.658;2022-10-22T19:21:36;99848.31;;;13.09;100.00
64292;BME280;50628;51.008;13.658;2022-10-22T19:26:38;99847.34;;;13.20;100.00
64292;BME280;50628;51.008;13.658;2022-10-22T19:31:42;99849.56;;;13.25;100.00
64292;BME280;50628;51.008;13.658;2022-10-22T19:36:43;99861.28;;;13.40;100.00
64292;BME280;50628;51.008;13.658;2022-10-22T19:41:45;99860.75;;;13.46;100.00
64292;BME280;50628;51.008;13.658;2022-10-22T19:46:48;99865.00;;;13.57;100.00
64292;BME280;50628;51.008;13.658;2022-10-22T19:51:50;99856.84;;;13.70;100.00
64292;BME280;50628;51.008;13.658;2022-10-22T19:56:52;99863.88;;;13.69;100.00
64292;BME280;50628;51.008;13.658;2022-10-22T20:01:55;99863.56;;;13.72;100.00
64292;BME280;50628;51.008;13.658;2022-10-22T20:06:56;99862.75;;;13.72;100.00
64292;BME280;50628;51.008;13.658;2022-10-22T20:11:58;99863.16;;;13.77;100.00
64292;BME280;50628;51.008;13.658;2022-10-22T20:17:01;99871.69;;;13.89;100.00
64292;BME280;50628;51.008;13.658;2022-10-22T20:22:03;99867.97;;;13.81;100.00
64292;BME280;50628;51.008;13.658;2022-10-22T20:27:05;99875.25;;;13.78;100.00
64292;BME280;50628;51.008;13.658;2022-10-22T20:32:08;99881.88;;;13.72;100.00
64292;BME280;50628;51.008;13.658;2022-10-22T20:37:09;99895.25;;;13.69;100.00
64292;BME280;50628;51.008;13.658;2022-10-22T20:42:11;99907.53;;;13.59;100.00
64292;BME280;50628;51.008;13.658;2022-10-22T20:47:16;99907.53;;;13.49;100.00
64292;BME280;50628;51.008;13.658;2022-10-22T20:52:17;99904.09;;;13.49;100.00
64292;BME280;50628;51.008;13.658;2022-10-22T20:57:19;99912.34;;;13.44;100.00
64292;BME280;50628;51.008;13.658;2022-10-22T21:02:22;99903.94;;;13.40;100.00
64292;BME280;50628;51.008;13.658;2022-10-22T21:07:24;99913.16;;;13.35;100.00
64292;BME280;50628;51.008;13.658;2022-10-22T21:12:26;99913.03;;;13.36;100.00
64292;BME280;50628;51.008;13.658;2022-10-22T21:17:29;99915.94;;;13.33;100.00
64292;BME280;50628;51.008;13.658;2022-10-22T21:22:32;99921.38;;;13.20;100.00
64292;BME280;50628;51.008;13.658;2022-10-22T21:27:34;99930.38;;;12.87;100.00
64292;BME280;50628;51.008;13.658;2022-10-22T21:32:37;99944.31;;;12.57;100.00
64292;BME280;50628;51.008;13.658;2022-10-22T21:37:38;99946.38;;;12.53;100.00
64292;BME280;50628;51.008;13.658;2022-10-22T21:42:40;99952.66;;;11.99;100.00
64292;BME280;50628;51.008;13.658;2022-10-22T21:47:44;99952.34;;;11.93;100.00
64292;BME280;50628;51.008;13.658;2022-10-22T21:52:45;99959.47;;;11.90;100.00
64292;BME280;50628;51.008;13.658;2022-10-22T21:57:47;99952.63;;;11.89;100.00
64292;BME280;50628;51.008;13.658;2022-10-22T22:02:50;99962.75;;;11.39;100.00
64292;BME280;50628;51.008;13.658;2022-10-22T22:07:52;99954.69;;;11.31;100.00
64292;BME280;50628;51.008;13.658;2022-10-22T22:12:53;99962.91;;;11.26;100.00
64292;BME280;50628;51.008;13.658;2022-10-22T22:17:57;99964.00;;;11.13;100.00
64292;BME280;50628;51.008;13.658;2022-10-22T22:22:58;99963.63;;;11.17;100.00
64292;BME280;50628;51.008;13.658;2022-10-22T22:28:00;99963.44;;;10.98;100.00
64292;BME280;50628;51.008;13.658;2022-10-22T22:33:03;99959.66;;;10.79;100.00
64292;BME280;50628;51.008;13.658;2022-10-22T22:38:06;99962.75;;;10.85;100.00
64292;BME280;50628;51.008;13.658;2022-10-22T22:43:08;99971.59;;;10.71;100.00
64292;BME280;50628;51.008;13.658;2022-10-22T22:48:11;99964.97;;;10.78;100.00
64292;BME280;50628;51.008;13.658;2022-10-22T22:53:13;99965.84;;;10.56;100.00
64292;BME280;50628;51.008;13.658;2022-10-22T22:58:14;99960.25;;;10.60;100.00
64292;BME280;50628;51.008;13.658;2022-10-22T23:03:17;99968.06;;;10.49;100.00
64292;BME280;50628;51.008;13.658;2022-10-22T23:08:19;99966.31;;;10.61;100.00
64292;BME280;50628;51.008;13.658;2022-10-22T23:13:21;99957.19;;;10.67;100.00
64292;BME280;50628;51.008;13.658;2022-10-22T23:18:24;99956.22;;;10.45;100.00
64292;BME280;50628;51.008;13.658;2022-10-22T23:23:26;99962.25;;;10.46;100.00
64292;BME280;50628;51.008;13.658;2022-10-22T23:28:28;99958.72;;;10.47;100.00
64292;BME280;50628;51.008;13.658;2022-10-22T23:33:31;99962.41;;;10.67;100.00
64292;BME280;50628;51.008;13.658;2022-10-22T23:38:33;99958.28;;;10.06;100.00
64292;BME280;50628;51.008;13.658;2022-10-22T23:43:35;99974.75;;;10.18;100.00
64292;BME280;50628;51.008;13.658;2022-10-22T23:48:39;99969.56;;;10.18;100.00
64292;BME280;50628;51.008;13.658;2022-10-22T23:53:42;99976.91;;;9.89;100.00
64292;BME280;50628;51.008;13.658;2022-10-22T23:58:44;99965.34;;;9.58;100.00
